LGX37B LIRA-LICJ
Flight info
| Callsign | LGX37B |
|---|---|
| Flight time | 0h 37m |
| Altitude | 31000 |
| Route | RIFFI DCT LURON |
| Aircraft | B38M/M-SDE1FGHILORVWXY/HB1 |
Departure
| Time | 2026-05-07 15:24 |
|---|---|
| Airport | Ciampino–G. B. Pastine International Airport (LIRA) |
Arrival
| Time | 2026-05-07 16:01 |
|---|---|
| Airport | Falcone–Borsellino Airport (LICJ) |
| Time | Latitude | Longitude | Altitude | Speed | Heading |
|---|---|---|---|---|---|
| 2026-05-07 15:18 | 41.80069 | 12.59020 | 402 ft | 0 kts | 123° |
| 2026-05-07 15:19 | 41.80074 | 12.59009 | 405 ft | 4 kts | 134° |
| 2026-05-07 15:19 | 41.80093 | 12.58983 | 405 ft | 4 kts | 129° |
| 2026-05-07 15:19 | 41.80109 | 12.58955 | 405 ft | 4 kts | 123° |
| 2026-05-07 15:20 | 41.80118 | 12.58937 | 405 ft | 1 kts | 119° |
| 2026-05-07 15:20 | 41.80118 | 12.58935 | 403 ft | 0 kts | 119° |
| 2026-05-07 15:22 | 41.80118 | 12.58961 | 405 ft | 6 kts | 68° |
| 2026-05-07 15:22 | 41.80174 | 12.59032 | 405 ft | 16 kts | 45° |
| 2026-05-07 15:22 | 41.80307 | 12.59021 | 405 ft | 26 kts | 332° |
| 2026-05-07 15:22 | 41.80495 | 12.58894 | 404 ft | 34 kts | 333° |
| 2026-05-07 15:23 | 41.80658 | 12.58781 | 406 ft | 22 kts | 333° |
| 2026-05-07 15:23 | 41.80753 | 12.58872 | 414 ft | 19 kts | 102° |
| 2026-05-07 15:23 | 41.80495 | 12.59097 | 416 ft | 80 kts | 152° |
| 2026-05-07 15:23 | 41.79790 | 12.59575 | 413 ft | 145 kts | 153° |
| 2026-05-07 15:24 | 41.78789 | 12.60228 | 835 ft | 168 kts | 157° |
| 2026-05-07 15:24 | 41.77602 | 12.60499 | 1594 ft | 182 kts | 185° |
| 2026-05-07 15:24 | 41.76306 | 12.60108 | 2313 ft | 200 kts | 191° |
| 2026-05-07 15:24 | 41.74886 | 12.59907 | 2986 ft | 216 kts | 183° |
| 2026-05-07 15:25 | 41.73295 | 12.59817 | 3776 ft | 235 kts | 182° |
| 2026-05-07 15:25 | 41.71624 | 12.59687 | 4591 ft | 252 kts | 184° |
| 2026-05-07 15:25 | 41.69815 | 12.59476 | 5427 ft | 269 kts | 185° |
| 2026-05-07 15:25 | 41.67931 | 12.59213 | 6451 ft | 275 kts | 186° |
| 2026-05-07 15:26 | 41.66013 | 12.58942 | 7524 ft | 279 kts | 185° |
| 2026-05-07 15:26 | 41.64063 | 12.58677 | 8577 ft | 284 kts | 186° |
| 2026-05-07 15:26 | 41.62081 | 12.58416 | 9607 ft | 288 kts | 185° |
| 2026-05-07 15:26 | 41.60055 | 12.58153 | 10460 ft | 300 kts | 185° |
| 2026-05-07 15:27 | 41.57914 | 12.57874 | 11025 ft | 317 kts | 186° |
| 2026-05-07 15:27 | 41.55651 | 12.57574 | 11562 ft | 335 kts | 186° |
| 2026-05-07 15:27 | 41.53277 | 12.57259 | 12033 ft | 352 kts | 186° |
| 2026-05-07 15:27 | 41.50797 | 12.56931 | 12689 ft | 362 kts | 186° |
| 2026-05-07 15:28 | 41.48263 | 12.56599 | 13497 ft | 368 kts | 186° |
| 2026-05-07 15:28 | 41.45699 | 12.56264 | 14315 ft | 373 kts | 186° |
| 2026-05-07 15:28 | 41.43104 | 12.55924 | 15110 ft | 377 kts | 186° |
| 2026-05-07 15:28 | 41.40510 | 12.55583 | 15843 ft | 381 kts | 186° |
| 2026-05-07 15:29 | 41.37837 | 12.55231 | 16585 ft | 386 kts | 187° |
| 2026-05-07 15:29 | 41.35155 | 12.54880 | 17294 ft | 389 kts | 187° |
| 2026-05-07 15:29 | 41.32446 | 12.54527 | 17967 ft | 393 kts | 187° |
| 2026-05-07 15:29 | 41.29709 | 12.54170 | 18629 ft | 397 kts | 187° |
| 2026-05-07 15:30 | 41.26947 | 12.53810 | 19262 ft | 401 kts | 187° |
| 2026-05-07 15:30 | 41.24155 | 12.53453 | 19878 ft | 405 kts | 185° |
| 2026-05-07 15:30 | 41.21325 | 12.53555 | 20460 ft | 410 kts | 174° |
| 2026-05-07 15:30 | 41.18493 | 12.54203 | 21017 ft | 415 kts | 171° |
| 2026-05-07 15:31 | 41.15641 | 12.54923 | 21565 ft | 418 kts | 171° |
| 2026-05-07 15:31 | 41.12774 | 12.55676 | 22098 ft | 422 kts | 171° |
| 2026-05-07 15:31 | 41.09917 | 12.56425 | 22610 ft | 425 kts | 171° |
| 2026-05-07 15:31 | 41.07002 | 12.57174 | 23117 ft | 428 kts | 171° |
| 2026-05-07 15:32 | 41.04064 | 12.57914 | 23618 ft | 431 kts | 171° |
| 2026-05-07 15:32 | 41.01102 | 12.58657 | 24122 ft | 434 kts | 171° |
| 2026-05-07 15:32 | 40.98125 | 12.59408 | 24605 ft | 437 kts | 171° |
| 2026-05-07 15:32 | 40.95130 | 12.60194 | 25073 ft | 440 kts | 171° |
| 2026-05-07 15:33 | 40.92125 | 12.61056 | 25518 ft | 444 kts | 170° |
| 2026-05-07 15:33 | 40.89101 | 12.61974 | 25952 ft | 447 kts | 169° |
| 2026-05-07 15:33 | 40.86056 | 12.62894 | 26366 ft | 450 kts | 170° |
| 2026-05-07 15:33 | 40.82991 | 12.63789 | 26770 ft | 452 kts | 171° |
| 2026-05-07 15:34 | 40.80950 | 12.64370 | 27025 ft | 454 kts | 171° |
| 2026-05-07 15:34 | 40.77850 | 12.65248 | 27413 ft | 457 kts | 171° |
| 2026-05-07 15:34 | 40.74735 | 12.66139 | 27774 ft | 459 kts | 171° |
| 2026-05-07 15:34 | 40.70584 | 12.67343 | 28239 ft | 463 kts | 171° |
| 2026-05-07 15:35 | 40.67422 | 12.68260 | 28601 ft | 466 kts | 171° |
| 2026-05-07 15:35 | 40.65276 | 12.68880 | 28823 ft | 467 kts | 171° |
| 2026-05-07 15:35 | 40.62092 | 12.69795 | 29150 ft | 470 kts | 171° |
| 2026-05-07 15:35 | 40.58891 | 12.70711 | 29457 ft | 472 kts | 171° |
| 2026-05-07 15:36 | 40.54626 | 12.71930 | 29961 ft | 474 kts | 172° |
| 2026-05-07 15:36 | 40.52451 | 12.72555 | 30256 ft | 473 kts | 172° |
| 2026-05-07 15:36 | 40.49277 | 12.73470 | 30696 ft | 472 kts | 172° |
| 2026-05-07 15:36 | 40.46059 | 12.74395 | 30930 ft | 475 kts | 172° |
| 2026-05-07 15:37 | 40.39594 | 12.76237 | 30940 ft | 474 kts | 172° |
| 2026-05-07 15:37 | 40.33170 | 12.78073 | 30948 ft | 471 kts | 172° |
| 2026-05-07 15:38 | 40.26758 | 12.79898 | 30948 ft | 470 kts | 172° |
| 2026-05-07 15:38 | 40.20370 | 12.81715 | 30939 ft | 469 kts | 172° |
| 2026-05-07 15:39 | 40.14019 | 12.83513 | 30937 ft | 470 kts | 172° |
| 2026-05-07 15:39 | 40.07623 | 12.85320 | 30937 ft | 470 kts | 172° |
| 2026-05-07 15:40 | 40.01206 | 12.87135 | 30933 ft | 472 kts | 172° |
| 2026-05-07 15:40 | 39.94788 | 12.88951 | 30928 ft | 470 kts | 172° |
| 2026-05-07 15:41 | 39.88385 | 12.90748 | 30932 ft | 471 kts | 172° |
| 2026-05-07 15:41 | 39.81975 | 12.92551 | 30923 ft | 471 kts | 172° |
| 2026-05-07 15:42 | 39.75566 | 12.94346 | 30918 ft | 471 kts | 172° |
| 2026-05-07 15:42 | 39.69146 | 12.96143 | 30919 ft | 471 kts | 172° |
| 2026-05-07 15:43 | 39.62789 | 12.97917 | 30915 ft | 471 kts | 173° |
| 2026-05-07 15:43 | 39.56371 | 12.99706 | 30912 ft | 471 kts | 172° |
| 2026-05-07 15:44 | 39.49962 | 13.01495 | 30909 ft | 470 kts | 173° |
| 2026-05-07 15:44 | 39.43557 | 13.03267 | 30909 ft | 471 kts | 173° |
| 2026-05-07 15:45 | 39.37131 | 13.05048 | 30008 ft | 481 kts | 173° |
| 2026-05-07 15:45 | 39.33854 | 13.05953 | 29190 ft | 477 kts | 172° |
| 2026-05-07 15:45 | 39.30620 | 13.06852 | 28234 ft | 475 kts | 172° |
| 2026-05-07 15:46 | 39.24154 | 13.08641 | 25869 ft | 477 kts | 171° |
| 2026-05-07 15:46 | 39.20951 | 13.09521 | 24937 ft | 473 kts | 171° |
| 2026-05-07 15:46 | 39.17757 | 13.10401 | 24005 ft | 466 kts | 170° |
| 2026-05-07 15:47 | 39.14607 | 13.11271 | 23044 ft | 459 kts | 170° |
| 2026-05-07 15:47 | 39.11505 | 13.12130 | 22073 ft | 453 kts | 170° |
| 2026-05-07 15:47 | 39.08447 | 13.12968 | 21126 ft | 446 kts | 170° |
| 2026-05-07 15:47 | 39.05429 | 13.13790 | 20165 ft | 439 kts | 170° |
| 2026-05-07 15:48 | 39.02458 | 13.14600 | 19206 ft | 434 kts | 170° |
| 2026-05-07 15:48 | 38.99528 | 13.15405 | 18259 ft | 427 kts | 170° |
| 2026-05-07 15:48 | 38.96677 | 13.16189 | 17329 ft | 422 kts | 170° |
| 2026-05-07 15:48 | 38.93826 | 13.16973 | 16391 ft | 416 kts | 170° |
| 2026-05-07 15:49 | 38.91010 | 13.17743 | 15467 ft | 410 kts | 169° |
| 2026-05-07 15:49 | 38.88234 | 13.18499 | 14553 ft | 405 kts | 169° |
| 2026-05-07 15:49 | 38.85489 | 13.19246 | 13643 ft | 400 kts | 169° |
| 2026-05-07 15:49 | 38.82784 | 13.19985 | 12739 ft | 395 kts | 169° |
| 2026-05-07 15:50 | 38.80107 | 13.20715 | 11846 ft | 390 kts | 169° |
| 2026-05-07 15:50 | 38.77479 | 13.21430 | 11212 ft | 380 kts | 168° |
| 2026-05-07 15:50 | 38.74946 | 13.22119 | 10853 ft | 363 kts | 168° |
| 2026-05-07 15:50 | 38.72531 | 13.22776 | 10550 ft | 346 kts | 168° |
| 2026-05-07 15:51 | 38.70227 | 13.23401 | 10318 ft | 331 kts | 168° |
| 2026-05-07 15:51 | 38.68029 | 13.23997 | 10136 ft | 315 kts | 168° |
| 2026-05-07 15:51 | 38.65934 | 13.24566 | 10024 ft | 299 kts | 168° |
| 2026-05-07 15:51 | 38.63938 | 13.25107 | 9928 ft | 285 kts | 168° |
| 2026-05-07 15:52 | 38.62050 | 13.25619 | 9666 ft | 279 kts | 168° |
| 2026-05-07 15:52 | 38.60165 | 13.26130 | 9302 ft | 276 kts | 168° |
| 2026-05-07 15:52 | 38.58289 | 13.26639 | 8941 ft | 275 kts | 167° |
| 2026-05-07 15:52 | 38.56422 | 13.27143 | 8584 ft | 273 kts | 167° |
| 2026-05-07 15:53 | 38.54570 | 13.27644 | 8234 ft | 271 kts | 167° |
| 2026-05-07 15:53 | 38.52725 | 13.28142 | 7891 ft | 270 kts | 167° |
| 2026-05-07 15:53 | 38.50893 | 13.28639 | 7563 ft | 269 kts | 167° |
| 2026-05-07 15:53 | 38.49067 | 13.29131 | 7242 ft | 267 kts | 167° |
| 2026-05-07 15:54 | 38.47255 | 13.29620 | 6913 ft | 265 kts | 167° |
| 2026-05-07 15:54 | 38.45458 | 13.30103 | 6561 ft | 263 kts | 167° |
| 2026-05-07 15:54 | 38.43672 | 13.30585 | 6216 ft | 262 kts | 167° |
| 2026-05-07 15:54 | 38.41896 | 13.31065 | 5885 ft | 260 kts | 167° |
| 2026-05-07 15:55 | 38.40131 | 13.31540 | 5550 ft | 259 kts | 167° |
| 2026-05-07 15:55 | 38.38373 | 13.32014 | 5204 ft | 258 kts | 167° |
| 2026-05-07 15:55 | 38.36622 | 13.32485 | 4865 ft | 256 kts | 167° |
| 2026-05-07 15:55 | 38.34898 | 13.32949 | 4525 ft | 256 kts | 168° |
| 2026-05-07 15:56 | 38.33154 | 13.33264 | 4287 ft | 250 kts | 182° |
| 2026-05-07 15:56 | 38.31487 | 13.32824 | 4050 ft | 245 kts | 195° |
| 2026-05-07 15:56 | 38.29819 | 13.32159 | 3571 ft | 252 kts | 198° |
| 2026-05-07 15:56 | 38.28204 | 13.31432 | 3535 ft | 240 kts | 199° |
| 2026-05-07 15:57 | 38.26677 | 13.30727 | 3519 ft | 228 kts | 199° |
| 2026-05-07 15:57 | 38.25231 | 13.30010 | 3295 ft | 225 kts | 210° |
| 2026-05-07 15:57 | 38.24110 | 13.28580 | 2875 ft | 234 kts | 240° |
| 2026-05-07 15:57 | 38.23431 | 13.26684 | 2508 ft | 236 kts | 247° |
| 2026-05-07 15:58 | 38.22831 | 13.24828 | 2196 ft | 218 kts | 247° |
| 2026-05-07 15:58 | 38.22274 | 13.23139 | 1914 ft | 195 kts | 247° |
| 2026-05-07 15:58 | 38.21778 | 13.21644 | 1678 ft | 173 kts | 246° |
| 2026-05-07 15:58 | 38.21320 | 13.20273 | 1423 ft | 164 kts | 247° |
| 2026-05-07 15:59 | 38.20872 | 13.18959 | 1035 ft | 159 kts | 246° |
| 2026-05-07 15:59 | 38.20445 | 13.17734 | 883 ft | 147 kts | 246° |
| 2026-05-07 15:59 | 38.20016 | 13.16534 | 770 ft | 145 kts | 246° |
| 2026-05-07 15:59 | 38.19608 | 13.15348 | 600 ft | 144 kts | 248° |
| 2026-05-07 16:00 | 38.19268 | 13.14150 | 403 ft | 143 kts | 250° |
| 2026-05-07 16:00 | 38.18883 | 13.12984 | 225 ft | 144 kts | 245° |
| 2026-05-07 16:00 | 38.18503 | 13.11851 | 81 ft | 144 kts | 247° |
| 2026-05-07 16:00 | 38.18137 | 13.10736 | 38 ft | 118 kts | 246° |
| 2026-05-07 16:01 | 38.17878 | 13.10001 | 36 ft | 79 kts | 247° |
| 2026-05-07 16:01 | 38.17687 | 13.09402 | 39 ft | 65 kts | 248° |
| 2026-05-07 16:01 | 38.17683 | 13.09154 | 35 ft | 18 kts | 14° |
| 2026-05-07 16:01 | 38.17824 | 13.09263 | 41 ft | 30 kts | 45° |
| 2026-05-07 16:02 | 38.17907 | 13.09466 | 56 ft | 22 kts | 66° |
| 2026-05-07 16:02 | 38.17970 | 13.09646 | 58 ft | 24 kts | 68° |
| 2026-05-07 16:02 | 38.18057 | 13.09859 | 57 ft | 28 kts | 34° |
| 2026-05-07 16:02 | 38.18173 | 13.10013 | 63 ft | 26 kts | 66° |
| 2026-05-07 16:03 | 38.18245 | 13.10222 | 59 ft | 26 kts | 66° |
| 2026-05-07 16:03 | 38.18349 | 13.10319 | 57 ft | 18 kts | 30° |
| 2026-05-07 16:03 | 38.18384 | 13.10396 | 64 ft | 0 kts | 68° |